createdAt,value
2022-09-12T00:00:44.921Z,84.83
2022-09-12T00:03:06.844Z,84.52
2022-09-12T00:05:09.212Z,84.45
2022-09-12T00:07:11.124Z,84.31
2022-09-12T00:09:14.734Z,84.34
2022-09-12T00:11:17.176Z,84.52
2022-09-12T00:13:19.129Z,84.81
2022-09-12T00:15:21.097Z,84.78
2022-09-12T00:17:23.376Z,84.66
2022-09-12T00:19:27.047Z,84.61
2022-09-12T00:21:29.961Z,84.37
2022-09-12T00:23:33.332Z,84.16
2022-09-12T00:25:35.355Z,84.20
2022-09-12T00:27:37.249Z,84.41
2022-09-12T00:29:39.504Z,84.71
2022-09-12T00:31:41.494Z,84.43
2022-09-12T00:33:44.273Z,84.57
2022-09-12T00:35:52.288Z,84.53
2022-09-12T00:37:54.128Z,84.12
2022-09-12T00:39:58.775Z,84.04
2022-09-12T00:42:01.180Z,83.82
2022-09-12T00:44:23.007Z,84.00
2022-09-12T00:46:48.437Z,84.17
2022-09-12T00:49:06.453Z,84.01
2022-09-12T00:51:09.136Z,84.52
2022-09-12T00:53:11.167Z,84.22
2022-09-12T00:55:36.930Z,84.39
2022-09-12T00:57:50.559Z,84.15
2022-09-12T01:00:22.929Z,84.16
2022-09-12T01:02:25.554Z,84.22
2022-09-12T01:04:29.070Z,84.05
2022-09-12T01:06:37.711Z,84.07
2022-09-12T01:08:41.812Z,83.99
2022-09-12T01:10:44.320Z,84.11
2022-09-12T01:12:47.132Z,84.19
2022-09-12T01:14:49.415Z,84.16
2022-09-12T01:16:51.789Z,84.34
2022-09-12T01:19:08.759Z,84.61
2022-09-12T01:21:45.462Z,84.32
2022-09-12T01:24:21.938Z,83.98
2022-09-12T01:27:00.192Z,84.17
2022-09-12T01:30:14.496Z,83.79
2022-09-12T01:32:38.226Z,84.04
2022-09-12T01:34:55.710Z,83.89
2022-09-12T01:37:21.795Z,84.45
2022-09-12T01:39:50.626Z,84.01
2022-09-12T01:42:07.777Z,83.78
2022-09-12T01:44:34.456Z,83.54
2022-09-12T01:46:36.784Z,84.10
2022-09-12T01:48:45.926Z,84.11
2022-09-12T01:51:01.992Z,84.03
2022-09-12T01:53:14.915Z,83.92
2022-09-12T01:55:38.679Z,84.01
2022-09-12T01:57:52.590Z,83.68
2022-09-12T02:00:00.916Z,83.71
2022-09-12T02:02:29.160Z,83.85
2022-09-12T02:04:58.135Z,84.28
2022-09-12T02:07:13.299Z,83.99
2022-09-12T02:09:24.584Z,83.93
2022-09-12T02:11:26.632Z,84.26
2022-09-12T02:13:38.289Z,83.70
2022-09-12T02:15:54.332Z,84.08
2022-09-12T02:18:00.843Z,83.92
2022-09-12T02:20:31.336Z,84.03
2022-09-12T02:22:41.672Z,83.60
2022-09-12T02:24:48.956Z,83.65
2022-09-12T02:27:26.357Z,83.27
2022-09-12T02:29:28.505Z,83.24
2022-09-12T02:31:47.952Z,83.09
2022-09-12T02:34:15.708Z,82.82
2022-09-12T02:36:37.934Z,83.34
2022-09-12T02:38:49.163Z,82.75
2022-09-12T02:40:51.616Z,83.19
2022-09-12T02:42:53.582Z,83.38
2022-09-12T02:44:57.262Z,83.33
2022-09-12T02:47:08.978Z,83.10
2022-09-12T02:49:14.760Z,83.13
2022-09-12T02:51:22.928Z,82.80
2022-09-12T02:53:26.947Z,83.28
2022-09-12T02:55:29.306Z,83.25
2022-09-12T02:57:32.415Z,83.15
2022-09-12T02:59:34.761Z,82.97
2022-09-12T03:02:04.063Z,82.87
2022-09-12T03:04:37.828Z,82.84
2022-09-12T03:07:18.790Z,83.28
2022-09-12T03:10:07.097Z,83.12
2022-09-12T03:12:46.789Z,83.55
2022-09-12T03:15:07.728Z,83.37
2022-09-12T03:17:29.337Z,83.18
2022-09-12T03:19:56.266Z,83.35
2022-09-12T03:22:35.441Z,83.89
2022-09-12T03:24:49.334Z,83.75
2022-09-12T03:26:58.461Z,83.89
2022-09-12T03:29:04.034Z,84.00
2022-09-12T03:31:15.213Z,83.71
2022-09-12T03:33:25.530Z,84.15
2022-09-12T03:35:29.724Z,83.73
2022-09-12T03:37:32.103Z,83.89
2022-09-12T03:39:34.001Z,84.04
2022-09-12T03:41:35.947Z,84.17
2022-09-12T03:43:38.188Z,83.87
2022-09-12T03:45:40.264Z,83.74
2022-09-12T03:47:42.368Z,83.93
2022-09-12T03:49:44.699Z,83.60
2022-09-12T03:51:46.586Z,83.27
2022-09-12T03:53:48.610Z,83.57
2022-09-12T03:55:50.903Z,83.72
2022-09-12T03:57:54.583Z,83.90
2022-09-12T03:59:56.626Z,83.43
2022-09-12T04:01:59.170Z,83.77
2022-09-12T04:04:01.073Z,83.64
2022-09-12T04:06:03.124Z,83.45
2022-09-12T04:08:06.424Z,83.42
2022-09-12T04:10:10.025Z,83.25
2022-09-12T04:12:13.431Z,83.62
2022-09-12T04:14:17.976Z,82.84
2022-09-12T04:16:21.500Z,83.07
2022-09-12T04:18:27.387Z,82.92
2022-09-12T04:20:31.095Z,83.15
2022-09-12T04:22:34.258Z,83.53
2022-09-12T04:24:39.670Z,83.50
2022-09-12T04:26:44.024Z,83.80
2022-09-12T04:28:47.632Z,83.85
2022-09-12T04:30:56.890Z,83.58
2022-09-12T04:33:04.946Z,83.67
2022-09-12T04:35:13.160Z,83.44
2022-09-12T04:37:21.873Z,83.80
2022-09-12T04:39:25.976Z,84.44
2022-09-12T04:41:40.046Z,84.12
2022-09-12T04:43:47.706Z,84.42
2022-09-12T04:45:53.923Z,84.18
2022-09-12T04:48:02.249Z,84.02
2022-09-12T04:50:15.212Z,83.06
2022-09-12T04:54:44.581Z,81.17
2022-09-12T04:56:57.595Z,80.42
2022-09-12T04:59:33.774Z,79.31
2022-09-12T05:02:40.571Z,76.75
2022-09-12T07:02:10.894Z,50.97
2022-09-12T07:04:13.157Z,52.02
2022-09-12T07:06:17.578Z,51.82
2022-09-12T07:08:38.370Z,52.79
2022-09-12T07:10:47.605Z,53.36
2022-09-12T07:17:33.551Z,53.09
2022-09-12T07:19:39.378Z,52.65
2022-09-12T07:21:46.076Z,53.13
2022-09-12T07:23:54.642Z,52.17
2022-09-12T07:26:04.938Z,50.63
2022-09-12T07:28:11.750Z,50.95
2022-09-12T07:30:15.170Z,51.28
2022-09-12T07:32:19.752Z,51.13
2022-09-12T07:34:30.293Z,51.01
2022-09-12T07:36:40.607Z,51.35
2022-09-12T07:41:20.793Z,51.85
2022-09-12T07:43:31.385Z,51.21
2022-09-12T07:45:34.091Z,50.36
2022-09-12T07:48:09.749Z,51.98
2022-09-12T12:43:36.598Z,51.27
2022-09-12T12:45:39.825Z,50.87
2022-09-12T12:48:06.253Z,51.27
2022-09-12T12:50:18.382Z,51.91
2022-09-12T12:52:22.142Z,51.99
2022-09-12T12:54:40.266Z,52.58
2022-09-12T12:56:47.192Z,52.55
2022-09-12T12:59:07.960Z,52.70
2022-09-12T13:01:27.742Z,53.13
2022-09-12T20:45:47.048Z,72.71
2022-09-12T20:47:49.485Z,72.92
2022-09-12T20:49:51.694Z,72.93
2022-09-12T20:51:53.665Z,73.06
2022-09-12T20:54:01.402Z,73.88
2022-09-12T20:56:04.152Z,74.02
2022-09-12T20:58:06.097Z,74.65
2022-09-12T21:00:10.789Z,74.31
2022-09-12T21:02:15.261Z,75.34
2022-09-12T21:04:18.531Z,74.35
2022-09-12T21:06:26.028Z,74.82
2022-09-12T21:08:31.513Z,75.21
2022-09-12T21:10:45.343Z,75.71
2022-09-12T21:12:50.041Z,75.65
2022-09-12T21:14:58.065Z,75.65
2022-09-12T21:17:02.716Z,75.93
2022-09-12T21:19:06.365Z,76.28
2022-09-12T21:21:11.261Z,76.40
2022-09-12T21:23:13.342Z,76.57
2022-09-12T21:25:15.520Z,76.63
2022-09-12T21:27:17.497Z,77.00
2022-09-12T21:29:19.440Z,76.93
2022-09-12T21:31:21.973Z,77.24
2022-09-12T21:33:24.475Z,76.91
2022-09-12T21:35:26.504Z,76.45
2022-09-12T21:37:29.079Z,76.25
2022-09-12T21:39:31.152Z,76.72
2022-09-12T21:41:33.341Z,76.49
2022-09-12T21:43:36.643Z,76.21
2022-09-12T21:45:39.183Z,75.86
2022-09-12T21:47:41.611Z,75.94
2022-09-12T21:49:44.097Z,76.26
2022-09-12T21:51:46.412Z,75.93
2022-09-12T21:53:49.169Z,75.57
2022-09-12T21:55:52.644Z,75.12
2022-09-12T21:57:56.555Z,75.50
2022-09-12T21:59:58.963Z,76.40
2022-09-12T22:02:01.839Z,76.40
2022-09-12T22:04:03.859Z,77.11
2022-09-12T22:06:06.425Z,76.19
2022-09-12T22:08:10.460Z,76.33
2022-09-12T22:10:12.458Z,76.69
2022-09-12T22:12:14.414Z,76.03
2022-09-12T22:14:16.933Z,76.43
2022-09-12T22:16:19.238Z,76.55
2022-09-12T22:18:21.307Z,76.65
2022-09-12T22:20:23.908Z,76.18
2022-09-12T22:22:26.271Z,76.70
2022-09-12T22:24:28.473Z,76.83
2022-09-12T22:26:31.783Z,76.93
2022-09-12T22:28:33.906Z,76.02
2022-09-12T22:30:35.946Z,76.09
2022-09-12T22:32:38.286Z,76.07
2022-09-12T22:34:40.462Z,76.07
2022-09-12T22:36:42.876Z,76.68
2022-09-12T22:38:45.627Z,77.22
2022-09-12T22:40:48.032Z,76.49
2022-09-12T22:42:52.938Z,76.54
2022-09-12T22:44:55.868Z,76.79
2022-09-12T22:46:58.074Z,76.61
2022-09-12T22:49:00.629Z,76.56
2022-09-12T22:51:02.934Z,76.26
2022-09-12T22:53:05.117Z,76.59
2022-09-12T22:55:08.491Z,76.42
2022-09-12T22:57:10.859Z,76.41
2022-09-12T22:59:13.388Z,76.58
2022-09-12T23:01:15.682Z,76.49
2022-09-12T23:03:20.807Z,76.41
2022-09-12T23:05:31.602Z,77.32
2022-09-12T23:07:37.989Z,77.12
2022-09-12T23:09:46.566Z,77.71
2022-09-12T23:11:50.084Z,77.38
2022-09-12T23:13:54.263Z,76.98
2022-09-12T23:16:06.560Z,76.87
2022-09-12T23:18:14.883Z,76.94
2022-09-12T23:20:24.688Z,77.28
2022-09-12T23:22:28.033Z,77.48
2022-09-12T23:24:32.923Z,76.76
2022-09-12T23:26:39.481Z,76.66
2022-09-12T23:28:49.796Z,77.07
2022-09-12T23:30:57.831Z,77.32
2022-09-12T23:35:25.715Z,76.73
2022-09-12T23:37:29.616Z,76.91
2022-09-12T23:39:32.632Z,77.07
2022-09-12T23:41:34.834Z,76.55
2022-09-12T23:43:37.500Z,76.77
2022-09-12T23:45:40.286Z,76.73
2022-09-12T23:47:42.676Z,77.05
2022-09-12T23:49:45.317Z,76.14
2022-09-12T23:51:48.537Z,76.36
2022-09-12T23:53:51.104Z,76.36
2022-09-12T23:55:54.537Z,76.21
2022-09-12T23:57:57.514Z,76.73
